sensor_id;sensor_type;location;lat;lon;timestamp;P1;durP1;ratioP1;P2;durP2;ratioP2
47882;SDS011;37739;50.350;7.578;2023-05-29T00:01:35;3.30;;;2.73;;
47882;SDS011;37739;50.350;7.578;2023-05-29T00:04:02;3.00;;;2.60;;
47882;SDS011;37739;50.350;7.578;2023-05-29T00:06:33;3.37;;;2.70;;
47882;SDS011;37739;50.350;7.578;2023-05-29T00:08:58;3.27;;;2.70;;
47882;SDS011;37739;50.350;7.578;2023-05-29T00:11:25;3.43;;;2.60;;
47882;SDS011;37739;50.350;7.578;2023-05-29T00:13:51;3.50;;;2.67;;
47882;SDS011;37739;50.350;7.578;2023-05-29T00:16:18;3.30;;;2.80;;
47882;SDS011;37739;50.350;7.578;2023-05-29T00:18:43;3.20;;;2.90;;
47882;SDS011;37739;50.350;7.578;2023-05-29T00:21:11;3.00;;;2.70;;
47882;SDS011;37739;50.350;7.578;2023-05-29T00:23:39;2.50;;;2.30;;
47882;SDS011;37739;50.350;7.578;2023-05-29T00:26:07;2.87;;;2.57;;
47882;SDS011;37739;50.350;7.578;2023-05-29T00:28:35;3.13;;;2.60;;
47882;SDS011;37739;50.350;7.578;2023-05-29T00:31:01;2.90;;;2.57;;
47882;SDS011;37739;50.350;7.578;2023-05-29T00:33:27;2.53;;;2.33;;
47882;SDS011;37739;50.350;7.578;2023-05-29T00:35:55;3.13;;;2.83;;
47882;SDS011;37739;50.350;7.578;2023-05-29T00:38:20;3.83;;;2.97;;
47882;SDS011;37739;50.350;7.578;2023-05-29T00:40:48;3.30;;;3.00;;
47882;SDS011;37739;50.350;7.578;2023-05-29T00:43:18;2.70;;;2.50;;
47882;SDS011;37739;50.350;7.578;2023-05-29T00:45:46;2.83;;;2.53;;
47882;SDS011;37739;50.350;7.578;2023-05-29T00:48:13;2.83;;;2.53;;
47882;SDS011;37739;50.350;7.578;2023-05-29T00:50:43;2.70;;;2.30;;
47882;SDS011;37739;50.350;7.578;2023-05-29T00:53:09;3.03;;;2.73;;
47882;SDS011;37739;50.350;7.578;2023-05-29T00:55:35;2.47;;;2.03;;
47882;SDS011;37739;50.350;7.578;2023-05-29T00:58:02;4.27;;;2.80;;
47882;SDS011;37739;50.350;7.578;2023-05-29T01:00:30;2.80;;;2.50;;
47882;SDS011;37739;50.350;7.578;2023-05-29T01:02:58;2.87;;;2.53;;
47882;SDS011;37739;50.350;7.578;2023-05-29T01:05:23;3.00;;;2.70;;
47882;SDS011;37739;50.350;7.578;2023-05-29T01:07:49;3.27;;;2.27;;
47882;SDS011;37739;50.350;7.578;2023-05-29T01:10:16;3.30;;;2.30;;
47882;SDS011;37739;50.350;7.578;2023-05-29T01:21:20;2.57;;;2.37;;
47882;SDS011;37739;50.350;7.578;2023-05-29T01:24:01;3.97;;;3.03;;
47882;SDS011;37739;50.350;7.578;2023-05-29T01:29:14;3.37;;;2.50;;
47882;SDS011;37739;50.350;7.578;2023-05-29T01:31:42;4.13;;;3.00;;
47882;SDS011;37739;50.350;7.578;2023-05-29T01:34:08;4.10;;;2.93;;
47882;SDS011;37739;50.350;7.578;2023-05-29T01:36:34;3.10;;;2.80;;
47882;SDS011;37739;50.350;7.578;2023-05-29T01:39:00;3.10;;;2.80;;
47882;SDS011;37739;50.350;7.578;2023-05-29T01:41:28;3.50;;;2.40;;
47882;SDS011;37739;50.350;7.578;2023-05-29T01:43:55;5.50;;;3.13;;
47882;SDS011;37739;50.350;7.578;2023-05-29T01:46:25;3.27;;;2.97;;
47882;SDS011;37739;50.350;7.578;2023-05-29T01:48:51;3.23;;;2.83;;
47882;SDS011;37739;50.350;7.578;2023-05-29T01:51:20;3.80;;;3.07;;
47882;SDS011;37739;50.350;7.578;2023-05-29T01:53:46;3.50;;;2.77;;
47882;SDS011;37739;50.350;7.578;2023-05-29T01:56:14;3.43;;;3.07;;
47882;SDS011;37739;50.350;7.578;2023-05-29T01:58:40;3.63;;;3.10;;
47882;SDS011;37739;50.350;7.578;2023-05-29T02:01:06;3.63;;;2.97;;
47882;SDS011;37739;50.350;7.578;2023-05-29T02:03:36;3.60;;;2.90;;
47882;SDS011;37739;50.350;7.578;2023-05-29T02:06:07;3.47;;;3.17;;
47882;SDS011;37739;50.350;7.578;2023-05-29T02:08:32;3.23;;;2.90;;
47882;SDS011;37739;50.350;7.578;2023-05-29T02:11:00;4.30;;;3.13;;
47882;SDS011;37739;50.350;7.578;2023-05-29T02:13:25;3.53;;;3.23;;
47882;SDS011;37739;50.350;7.578;2023-05-29T02:15:53;4.07;;;2.70;;
47882;SDS011;37739;50.350;7.578;2023-05-29T02:18:18;3.50;;;3.20;;
47882;SDS011;37739;50.350;7.578;2023-05-29T02:20:46;3.40;;;3.10;;
47882;SDS011;37739;50.350;7.578;2023-05-29T02:23:12;3.23;;;2.93;;
47882;SDS011;37739;50.350;7.578;2023-05-29T02:25:40;3.60;;;3.13;;
47882;SDS011;37739;50.350;7.578;2023-05-29T02:28:06;3.60;;;3.10;;
47882;SDS011;37739;50.350;7.578;2023-05-29T02:30:34;4.30;;;3.30;;
47882;SDS011;37739;50.350;7.578;2023-05-29T02:32:59;3.83;;;2.50;;
47882;SDS011;37739;50.350;7.578;2023-05-29T02:35:25;3.43;;;3.13;;
47882;SDS011;37739;50.350;7.578;2023-05-29T02:37:55;3.27;;;2.70;;
47882;SDS011;37739;50.350;7.578;2023-05-29T02:40:20;3.73;;;3.43;;
47882;SDS011;37739;50.350;7.578;2023-05-29T02:42:46;3.87;;;3.03;;
47882;SDS011;37739;50.350;7.578;2023-05-29T02:45:11;3.93;;;3.13;;
47882;SDS011;37739;50.350;7.578;2023-05-29T02:47:39;5.37;;;3.90;;
47882;SDS011;37739;50.350;7.578;2023-05-29T02:50:05;3.63;;;3.33;;
47882;SDS011;37739;50.350;7.578;2023-05-29T02:52:34;4.20;;;3.27;;
47882;SDS011;37739;50.350;7.578;2023-05-29T02:54:59;4.43;;;3.80;;
47882;SDS011;37739;50.350;7.578;2023-05-29T02:57:24;3.73;;;3.23;;
47882;SDS011;37739;50.350;7.578;2023-05-29T02:59:50;3.43;;;3.10;;
47882;SDS011;37739;50.350;7.578;2023-05-29T03:02:16;3.53;;;3.20;;
47882;SDS011;37739;50.350;7.578;2023-05-29T03:04:44;4.07;;;3.30;;
47882;SDS011;37739;50.350;7.578;2023-05-29T03:07:15;3.40;;;2.97;;
47882;SDS011;37739;50.350;7.578;2023-05-29T03:09:40;4.93;;;3.67;;
47882;SDS011;37739;50.350;7.578;2023-05-29T03:12:05;5.17;;;4.07;;
47882;SDS011;37739;50.350;7.578;2023-05-29T03:14:31;4.27;;;3.47;;
47882;SDS011;37739;50.350;7.578;2023-05-29T03:17:00;3.90;;;3.53;;
47882;SDS011;37739;50.350;7.578;2023-05-29T03:19:29;4.20;;;3.80;;
47882;SDS011;37739;50.350;7.578;2023-05-29T03:21:54;3.83;;;3.43;;
47882;SDS011;37739;50.350;7.578;2023-05-29T03:24:20;6.00;;;3.50;;
47882;SDS011;37739;50.350;7.578;2023-05-29T03:26:45;3.83;;;3.43;;
47882;SDS011;37739;50.350;7.578;2023-05-29T03:29:11;4.00;;;3.70;;
47882;SDS011;37739;50.350;7.578;2023-05-29T03:31:38;7.40;;;5.30;;
47882;SDS011;37739;50.350;7.578;2023-05-29T03:34:04;4.67;;;4.07;;
47882;SDS011;37739;50.350;7.578;2023-05-29T03:36:31;4.07;;;3.50;;
47882;SDS011;37739;50.350;7.578;2023-05-29T03:38:59;6.03;;;3.97;;
47882;SDS011;37739;50.350;7.578;2023-05-29T03:41:24;4.27;;;3.87;;
47882;SDS011;37739;50.350;7.578;2023-05-29T03:43:50;5.23;;;3.90;;
47882;SDS011;37739;50.350;7.578;2023-05-29T03:46:15;4.20;;;3.77;;
47882;SDS011;37739;50.350;7.578;2023-05-29T03:48:41;4.27;;;3.33;;
47882;SDS011;37739;50.350;7.578;2023-05-29T03:51:08;5.60;;;3.70;;
47882;SDS011;37739;50.350;7.578;2023-05-29T03:53:33;4.20;;;3.43;;
47882;SDS011;37739;50.350;7.578;2023-05-29T03:56:01;4.40;;;3.60;;
47882;SDS011;37739;50.350;7.578;2023-05-29T03:58:26;5.33;;;4.17;;
47882;SDS011;37739;50.350;7.578;2023-05-29T04:00:52;4.50;;;4.10;;
47882;SDS011;37739;50.350;7.578;2023-05-29T04:03:17;5.23;;;3.93;;
47882;SDS011;37739;50.350;7.578;2023-05-29T04:05:46;4.43;;;3.70;;
47882;SDS011;37739;50.350;7.578;2023-05-29T04:08:14;5.10;;;3.53;;
47882;SDS011;37739;50.350;7.578;2023-05-29T04:10:40;6.17;;;3.90;;
47882;SDS011;37739;50.350;7.578;2023-05-29T04:13:05;4.13;;;3.83;;
47882;SDS011;37739;50.350;7.578;2023-05-29T04:15:31;4.10;;;3.40;;
47882;SDS011;37739;50.350;7.578;2023-05-29T04:17:58;5.70;;;4.17;;
47882;SDS011;37739;50.350;7.578;2023-05-29T04:20:26;4.13;;;3.57;;
47882;SDS011;37739;50.350;7.578;2023-05-29T04:22:51;4.10;;;3.47;;
47882;SDS011;37739;50.350;7.578;2023-05-29T04:25:17;5.03;;;3.57;;
47882;SDS011;37739;50.350;7.578;2023-05-29T04:27:43;4.63;;;3.80;;
47882;SDS011;37739;50.350;7.578;2023-05-29T04:30:13;4.40;;;4.00;;
47882;SDS011;37739;50.350;7.578;2023-05-29T04:32:39;5.30;;;4.40;;
47882;SDS011;37739;50.350;7.578;2023-05-29T04:35:07;4.80;;;4.13;;
47882;SDS011;37739;50.350;7.578;2023-05-29T04:37:35;5.73;;;3.90;;
47882;SDS011;37739;50.350;7.578;2023-05-29T04:40:04;4.77;;;4.17;;
47882;SDS011;37739;50.350;7.578;2023-05-29T04:42:36;7.27;;;4.13;;
47882;SDS011;37739;50.350;7.578;2023-05-29T04:45:02;4.50;;;3.90;;
47882;SDS011;37739;50.350;7.578;2023-05-29T04:47:30;4.20;;;3.50;;
47882;SDS011;37739;50.350;7.578;2023-05-29T04:49:57;6.37;;;4.20;;
47882;SDS011;37739;50.350;7.578;2023-05-29T04:52:24;5.97;;;4.40;;
47882;SDS011;37739;50.350;7.578;2023-05-29T04:54:49;4.30;;;3.90;;
47882;SDS011;37739;50.350;7.578;2023-05-29T04:57:15;5.23;;;3.77;;
47882;SDS011;37739;50.350;7.578;2023-05-29T04:59:43;4.97;;;4.00;;
47882;SDS011;37739;50.350;7.578;2023-05-29T05:02:11;4.40;;;4.00;;
47882;SDS011;37739;50.350;7.578;2023-05-29T05:04:38;5.57;;;4.00;;
47882;SDS011;37739;50.350;7.578;2023-05-29T05:07:07;4.70;;;3.70;;
47882;SDS011;37739;50.350;7.578;2023-05-29T05:09:33;5.47;;;4.60;;
47882;SDS011;37739;50.350;7.578;2023-05-29T05:11:58;5.00;;;3.93;;
47882;SDS011;37739;50.350;7.578;2023-05-29T05:14:23;4.73;;;4.20;;
47882;SDS011;37739;50.350;7.578;2023-05-29T05:16:51;5.20;;;4.70;;
47882;SDS011;37739;50.350;7.578;2023-05-29T05:19:19;5.20;;;3.77;;
47882;SDS011;37739;50.350;7.578;2023-05-29T05:21:44;6.30;;;4.03;;
47882;SDS011;37739;50.350;7.578;2023-05-29T05:24:10;5.07;;;3.60;;
47882;SDS011;37739;50.350;7.578;2023-05-29T05:26:35;6.40;;;5.00;;
47882;SDS011;37739;50.350;7.578;2023-05-29T05:29:00;5.03;;;4.30;;
47882;SDS011;37739;50.350;7.578;2023-05-29T05:31:28;7.00;;;5.10;;
47882;SDS011;37739;50.350;7.578;2023-05-29T05:33:58;4.63;;;4.20;;
47882;SDS011;37739;50.350;7.578;2023-05-29T05:36:26;4.10;;;3.77;;
47882;SDS011;37739;50.350;7.578;2023-05-29T05:38:51;4.20;;;3.80;;
47882;SDS011;37739;50.350;7.578;2023-05-29T05:41:18;4.30;;;3.90;;
47882;SDS011;37739;50.350;7.578;2023-05-29T05:43:44;4.37;;;3.97;;
47882;SDS011;37739;50.350;7.578;2023-05-29T05:46:09;4.30;;;3.73;;
47882;SDS011;37739;50.350;7.578;2023-05-29T05:48:39;4.40;;;4.00;;
47882;SDS011;37739;50.350;7.578;2023-05-29T05:51:05;4.57;;;3.70;;
47882;SDS011;37739;50.350;7.578;2023-05-29T05:53:30;5.63;;;4.60;;
47882;SDS011;37739;50.350;7.578;2023-05-29T05:55:55;3.80;;;3.50;;
47882;SDS011;37739;50.350;7.578;2023-05-29T05:58:20;4.43;;;4.03;;
47882;SDS011;37739;50.350;7.578;2023-05-29T06:00:48;4.33;;;3.93;;
47882;SDS011;37739;50.350;7.578;2023-05-29T06:03:17;4.30;;;3.80;;
47882;SDS011;37739;50.350;7.578;2023-05-29T06:05:42;4.40;;;3.60;;
47882;SDS011;37739;50.350;7.578;2023-05-29T06:08:08;7.03;;;4.00;;
47882;SDS011;37739;50.350;7.578;2023-05-29T06:10:33;3.50;;;3.13;;
47882;SDS011;37739;50.350;7.578;2023-05-29T06:13:01;5.13;;;3.97;;
47882;SDS011;37739;50.350;7.578;2023-05-29T06:15:27;5.60;;;3.80;;
47882;SDS011;37739;50.350;7.578;2023-05-29T06:17:52;5.60;;;5.00;;
47882;SDS011;37739;50.350;7.578;2023-05-29T06:20:20;5.60;;;4.17;;
47882;SDS011;37739;50.350;7.578;2023-05-29T06:22:48;4.10;;;3.53;;
47882;SDS011;37739;50.350;7.578;2023-05-29T06:25:16;7.70;;;4.70;;
47882;SDS011;37739;50.350;7.578;2023-05-29T06:27:43;4.80;;;4.07;;
47882;SDS011;37739;50.350;7.578;2023-05-29T06:30:09;5.70;;;4.60;;
47882;SDS011;37739;50.350;7.578;2023-05-29T06:32:35;4.03;;;3.73;;
47882;SDS011;37739;50.350;7.578;2023-05-29T06:35:00;4.47;;;4.07;;
47882;SDS011;37739;50.350;7.578;2023-05-29T06:37:26;4.57;;;3.73;;
47882;SDS011;37739;50.350;7.578;2023-05-29T06:39:51;6.37;;;3.90;;
47882;SDS011;37739;50.350;7.578;2023-05-29T06:42:19;5.03;;;4.30;;
47882;SDS011;37739;50.350;7.578;2023-05-29T06:44:49;5.67;;;3.80;;
47882;SDS011;37739;50.350;7.578;2023-05-29T06:47:15;5.47;;;4.10;;
47882;SDS011;37739;50.350;7.578;2023-05-29T06:49:40;8.20;;;4.63;;
47882;SDS011;37739;50.350;7.578;2023-05-29T06:52:05;3.70;;;3.40;;
47882;SDS011;37739;50.350;7.578;2023-05-29T06:54:31;5.10;;;3.30;;
47882;SDS011;37739;50.350;7.578;2023-05-29T06:56:59;4.53;;;3.93;;
47882;SDS011;37739;50.350;7.578;2023-05-29T06:59:24;4.00;;;3.60;;
47882;SDS011;37739;50.350;7.578;2023-05-29T07:01:50;4.53;;;3.40;;
47882;SDS011;37739;50.350;7.578;2023-05-29T07:04:15;5.47;;;4.23;;
47882;SDS011;37739;50.350;7.578;2023-05-29T07:06:40;5.03;;;3.80;;
47882;SDS011;37739;50.350;7.578;2023-05-29T07:09:08;4.90;;;3.33;;
47882;SDS011;37739;50.350;7.578;2023-05-29T07:11:33;3.80;;;3.40;;
47882;SDS011;37739;50.350;7.578;2023-05-29T07:14:01;4.50;;;3.67;;
47882;SDS011;37739;50.350;7.578;2023-05-29T07:16:26;4.50;;;3.80;;
47882;SDS011;37739;50.350;7.578;2023-05-29T07:18:52;6.50;;;4.70;;
47882;SDS011;37739;50.350;7.578;2023-05-29T07:21:19;5.70;;;3.77;;
47882;SDS011;37739;50.350;7.578;2023-05-29T07:23:49;4.10;;;3.67;;
47882;SDS011;37739;50.350;7.578;2023-05-29T07:26:17;4.20;;;3.53;;
47882;SDS011;37739;50.350;7.578;2023-05-29T07:28:42;5.87;;;3.93;;
47882;SDS011;37739;50.350;7.578;2023-05-29T07:31:08;4.47;;;3.60;;
47882;SDS011;37739;50.350;7.578;2023-05-29T07:33:33;4.47;;;3.30;;
47882;SDS011;37739;50.350;7.578;2023-05-29T07:35:59;5.53;;;3.90;;
47882;SDS011;37739;50.350;7.578;2023-05-29T07:38:27;5.10;;;4.60;;
47882;SDS011;37739;50.350;7.578;2023-05-29T07:40:57;4.50;;;3.27;;
47882;SDS011;37739;50.350;7.578;2023-05-29T07:43:22;4.37;;;3.97;;
47882;SDS011;37739;50.350;7.578;2023-05-29T07:45:50;5.10;;;3.80;;
47882;SDS011;37739;50.350;7.578;2023-05-29T07:48:18;4.23;;;3.17;;
47882;SDS011;37739;50.350;7.578;2023-05-29T07:50:45;4.43;;;3.37;;
47882;SDS011;37739;50.350;7.578;2023-05-29T07:53:11;4.87;;;4.27;;
47882;SDS011;37739;50.350;7.578;2023-05-29T07:55:36;5.97;;;4.00;;
47882;SDS011;37739;50.350;7.578;2023-05-29T07:58:02;4.50;;;3.70;;
47882;SDS011;37739;50.350;7.578;2023-05-29T08:00:29;4.77;;;3.93;;
47882;SDS011;37739;50.350;7.578;2023-05-29T08:02:58;4.43;;;3.53;;
47882;SDS011;37739;50.350;7.578;2023-05-29T08:05:23;4.73;;;3.20;;
47882;SDS011;37739;50.350;7.578;2023-05-29T08:07:49;3.13;;;2.83;;
47882;SDS011;37739;50.350;7.578;2023-05-29T08:10:14;3.70;;;3.37;;
47882;SDS011;37739;50.350;7.578;2023-05-29T08:12:40;4.90;;;3.80;;
47882;SDS011;37739;50.350;7.578;2023-05-29T08:15:05;5.03;;;4.23;;
47882;SDS011;37739;50.350;7.578;2023-05-29T08:17:33;3.43;;;3.13;;
47882;SDS011;37739;50.350;7.578;2023-05-29T08:20:01;4.40;;;3.83;;
47882;SDS011;37739;50.350;7.578;2023-05-29T08:22:30;4.30;;;3.90;;
47882;SDS011;37739;50.350;7.578;2023-05-29T08:24:56;5.73;;;3.57;;
47882;SDS011;37739;50.350;7.578;2023-05-29T08:27:24;4.83;;;3.80;;
47882;SDS011;37739;50.350;7.578;2023-05-29T08:29:50;3.90;;;3.27;;
47882;SDS011;37739;50.350;7.578;2023-05-29T08:32:18;3.63;;;3.20;;
47882;SDS011;37739;50.350;7.578;2023-05-29T08:34:46;4.50;;;3.90;;
47882;SDS011;37739;50.350;7.578;2023-05-29T08:37:14;4.17;;;3.60;;
47882;SDS011;37739;50.350;7.578;2023-05-29T08:39:44;4.63;;;4.17;;
47882;SDS011;37739;50.350;7.578;2023-05-29T08:42:12;4.33;;;3.73;;
47882;SDS011;37739;50.350;7.578;2023-05-29T08:44:46;3.40;;;3.10;;
47882;SDS011;37739;50.350;7.578;2023-05-29T08:47:16;4.70;;;3.50;;
47882;SDS011;37739;50.350;7.578;2023-05-29T08:49:45;5.27;;;3.70;;
47882;SDS011;37739;50.350;7.578;2023-05-29T08:52:23;5.53;;;3.87;;
47882;SDS011;37739;50.350;7.578;2023-05-29T08:54:53;4.33;;;3.87;;
47882;SDS011;37739;50.350;7.578;2023-05-29T08:57:19;4.67;;;4.13;;
47882;SDS011;37739;50.350;7.578;2023-05-29T08:59:45;4.20;;;3.70;;
47882;SDS011;37739;50.350;7.578;2023-05-29T09:02:19;4.20;;;3.67;;
47882;SDS011;37739;50.350;7.578;2023-05-29T09:04:45;5.13;;;3.40;;
47882;SDS011;37739;50.350;7.578;2023-05-29T09:07:14;4.47;;;3.60;;
47882;SDS011;37739;50.350;7.578;2023-05-29T09:09:40;4.57;;;3.70;;
47882;SDS011;37739;50.350;7.578;2023-05-29T09:12:05;4.37;;;3.97;;
47882;SDS011;37739;50.350;7.578;2023-05-29T09:14:36;4.20;;;3.60;;
47882;SDS011;37739;50.350;7.578;2023-05-29T09:17:03;4.20;;;3.73;;
47882;SDS011;37739;50.350;7.578;2023-05-29T09:19:30;4.73;;;3.20;;
47882;SDS011;37739;50.350;7.578;2023-05-29T09:24:29;4.00;;;3.60;;
47882;SDS011;37739;50.350;7.578;2023-05-29T09:26:58;6.30;;;3.90;;
47882;SDS011;37739;50.350;7.578;2023-05-29T09:29:26;4.07;;;3.17;;
47882;SDS011;37739;50.350;7.578;2023-05-29T09:32:14;4.23;;;3.83;;
47882;SDS011;37739;50.350;7.578;2023-05-29T09:34:44;4.10;;;3.70;;
47882;SDS011;37739;50.350;7.578;2023-05-29T09:37:10;4.37;;;3.97;;
47882;SDS011;37739;50.350;7.578;2023-05-29T09:42:14;3.37;;;2.93;;
47882;SDS011;37739;50.350;7.578;2023-05-29T09:44:43;4.63;;;4.00;;
47882;SDS011;37739;50.350;7.578;2023-05-29T09:47:18;4.73;;;4.10;;
47882;SDS011;37739;50.350;7.578;2023-05-29T09:49:49;6.40;;;3.90;;
47882;SDS011;37739;50.350;7.578;2023-05-29T09:52:20;4.60;;;3.80;;
47882;SDS011;37739;50.350;7.578;2023-05-29T09:54:47;4.17;;;3.73;;
47882;SDS011;37739;50.350;7.578;2023-05-29T09:57:13;3.87;;;3.20;;
47882;SDS011;37739;50.350;7.578;2023-05-29T09:59:45;7.43;;;3.70;;
47882;SDS011;37739;50.350;7.578;2023-05-29T10:02:16;4.00;;;3.37;;
47882;SDS011;37739;50.350;7.578;2023-05-29T10:04:42;4.40;;;3.50;;
47882;SDS011;37739;50.350;7.578;2023-05-29T10:07:44;5.20;;;3.60;;
47882;SDS011;37739;50.350;7.578;2023-05-29T10:10:05;4.77;;;3.27;;
47882;SDS011;37739;50.350;7.578;2023-05-29T10:12:42;4.80;;;4.30;;
47882;SDS011;37739;50.350;7.578;2023-05-29T10:15:11;3.80;;;3.23;;
47882;SDS011;37739;50.350;7.578;2023-05-29T10:17:39;3.70;;;3.40;;
47882;SDS011;37739;50.350;7.578;2023-05-29T10:20:16;4.17;;;3.50;;
47882;SDS011;37739;50.350;7.578;2023-05-29T10:22:47;4.23;;;3.47;;
47882;SDS011;37739;50.350;7.578;2023-05-29T10:25:15;5.10;;;3.53;;
47882;SDS011;37739;50.350;7.578;2023-05-29T10:27:43;4.23;;;3.73;;
47882;SDS011;37739;50.350;7.578;2023-05-29T10:32:55;3.90;;;3.10;;
47882;SDS011;37739;50.350;7.578;2023-05-29T10:35:53;4.43;;;3.10;;
47882;SDS011;37739;50.350;7.578;2023-05-29T10:38:20;4.33;;;3.83;;
47882;SDS011;37739;50.350;7.578;2023-05-29T10:40:46;3.53;;;3.23;;
47882;SDS011;37739;50.350;7.578;2023-05-29T10:43:33;5.53;;;3.67;;
47882;SDS011;37739;50.350;7.578;2023-05-29T10:45:59;4.00;;;3.47;;
47882;SDS011;37739;50.350;7.578;2023-05-29T10:50:54;4.63;;;4.10;;
47882;SDS011;37739;50.350;7.578;2023-05-29T10:53:23;5.90;;;4.07;;
47882;SDS011;37739;50.350;7.578;2023-05-29T10:55:51;4.37;;;3.60;;
47882;SDS011;37739;50.350;7.578;2023-05-29T10:58:24;5.50;;;4.07;;
47882;SDS011;37739;50.350;7.578;2023-05-29T11:00:51;4.87;;;4.47;;
47882;SDS011;37739;50.350;7.578;2023-05-29T11:03:29;4.33;;;3.23;;
47882;SDS011;37739;50.350;7.578;2023-05-29T11:05:56;5.90;;;3.20;;
47882;SDS011;37739;50.350;7.578;2023-05-29T11:08:30;4.73;;;3.63;;
47882;SDS011;37739;50.350;7.578;2023-05-29T11:11:01;6.07;;;4.17;;
47882;SDS011;37739;50.350;7.578;2023-05-29T11:13:31;3.93;;;3.07;;
47882;SDS011;37739;50.350;7.578;2023-05-29T11:18:57;5.33;;;3.43;;
47882;SDS011;37739;50.350;7.578;2023-05-29T11:23:58;5.30;;;4.00;;
47882;SDS011;37739;50.350;7.578;2023-05-29T11:26:28;4.10;;;3.40;;
47882;SDS011;37739;50.350;7.578;2023-05-29T11:29:00;5.07;;;3.87;;
47882;SDS011;37739;50.350;7.578;2023-05-29T11:31:28;4.30;;;3.00;;
47882;SDS011;37739;50.350;7.578;2023-05-29T11:33:58;5.10;;;3.70;;
47882;SDS011;37739;50.350;7.578;2023-05-29T11:36:30;6.83;;;3.67;;
47882;SDS011;37739;50.350;7.578;2023-05-29T11:38:58;3.60;;;3.30;;
47882;SDS011;37739;50.350;7.578;2023-05-29T11:41:25;4.43;;;3.53;;
47882;SDS011;37739;50.350;7.578;2023-05-29T11:43:59;6.67;;;3.80;;
47882;SDS011;37739;50.350;7.578;2023-05-29T11:46:27;5.00;;;3.83;;
47882;SDS011;37739;50.350;7.578;2023-05-29T11:48:55;5.10;;;3.77;;
47882;SDS011;37739;50.350;7.578;2023-05-29T11:51:21;4.40;;;3.40;;
47882;SDS011;37739;50.350;7.578;2023-05-29T11:53:47;4.00;;;3.40;;
47882;SDS011;37739;50.350;7.578;2023-05-29T11:56:18;4.70;;;3.30;;
47882;SDS011;37739;50.350;7.578;2023-05-29T11:58:43;4.00;;;3.17;;
47882;SDS011;37739;50.350;7.578;2023-05-29T12:01:09;3.67;;;3.23;;
47882;SDS011;37739;50.350;7.578;2023-05-29T12:03:39;4.60;;;3.20;;
47882;SDS011;37739;50.350;7.578;2023-05-29T12:06:05;5.33;;;4.13;;
47882;SDS011;37739;50.350;7.578;2023-05-29T12:08:35;3.70;;;3.40;;
47882;SDS011;37739;50.350;7.578;2023-05-29T12:11:00;4.23;;;3.70;;
47882;SDS011;37739;50.350;7.578;2023-05-29T12:13:28;4.17;;;2.77;;
47882;SDS011;37739;50.350;7.578;2023-05-29T12:15:59;4.83;;;3.40;;
47882;SDS011;37739;50.350;7.578;2023-05-29T12:18:30;5.80;;;3.53;;
47882;SDS011;37739;50.350;7.578;2023-05-29T12:21:01;4.73;;;3.87;;
47882;SDS011;37739;50.350;7.578;2023-05-29T12:23:32;5.03;;;3.23;;
47882;SDS011;37739;50.350;7.578;2023-05-29T12:25:57;5.17;;;3.77;;
47882;SDS011;37739;50.350;7.578;2023-05-29T12:28:26;4.03;;;3.50;;
47882;SDS011;37739;50.350;7.578;2023-05-29T12:30:57;3.67;;;3.37;;
47882;SDS011;37739;50.350;7.578;2023-05-29T12:33:28;5.00;;;3.70;;
47882;SDS011;37739;50.350;7.578;2023-05-29T12:36:00;3.70;;;3.00;;
47882;SDS011;37739;50.350;7.578;2023-05-29T12:38:29;4.00;;;2.97;;
47882;SDS011;37739;50.350;7.578;2023-05-29T12:40:55;6.07;;;3.50;;
47882;SDS011;37739;50.350;7.578;2023-05-29T12:43:23;4.50;;;3.70;;
47882;SDS011;37739;50.350;7.578;2023-05-29T12:45:53;5.00;;;3.20;;
47882;SDS011;37739;50.350;7.578;2023-05-29T12:48:20;3.53;;;3.23;;
47882;SDS011;37739;50.350;7.578;2023-05-29T12:50:51;4.20;;;3.63;;
47882;SDS011;37739;50.350;7.578;2023-05-29T12:53:18;3.97;;;3.10;;
47882;SDS011;37739;50.350;7.578;2023-05-29T12:55:44;3.40;;;3.10;;
47882;SDS011;37739;50.350;7.578;2023-05-29T12:58:12;3.50;;;2.93;;
47882;SDS011;37739;50.350;7.578;2023-05-29T13:00:39;4.57;;;3.00;;
47882;SDS011;37739;50.350;7.578;2023-05-29T13:03:08;4.70;;;3.37;;
47882;SDS011;37739;50.350;7.578;2023-05-29T13:05:34;3.27;;;2.97;;
47882;SDS011;37739;50.350;7.578;2023-05-29T13:08:00;4.63;;;3.60;;
47882;SDS011;37739;50.350;7.578;2023-05-29T13:10:26;5.93;;;3.90;;
47882;SDS011;37739;50.350;7.578;2023-05-29T13:12:53;4.90;;;3.30;;
47882;SDS011;37739;50.350;7.578;2023-05-29T13:15:20;5.17;;;3.10;;
47882;SDS011;37739;50.350;7.578;2023-05-29T13:17:47;3.57;;;3.27;;
47882;SDS011;37739;50.350;7.578;2023-05-29T13:20:13;3.60;;;3.10;;
47882;SDS011;37739;50.350;7.578;2023-05-29T13:22:39;4.70;;;3.43;;
47882;SDS011;37739;50.350;7.578;2023-05-29T13:25:06;4.20;;;3.20;;
47882;SDS011;37739;50.350;7.578;2023-05-29T13:27:34;4.03;;;2.80;;
47882;SDS011;37739;50.350;7.578;2023-05-29T13:30:00;4.33;;;3.10;;
47882;SDS011;37739;50.350;7.578;2023-05-29T13:32:26;5.03;;;3.73;;
47882;SDS011;37739;50.350;7.578;2023-05-29T13:34:51;5.10;;;3.43;;
47882;SDS011;37739;50.350;7.578;2023-05-29T13:37:16;5.67;;;3.47;;
47882;SDS011;37739;50.350;7.578;2023-05-29T13:39:42;5.80;;;4.07;;
47882;SDS011;37739;50.350;7.578;2023-05-29T13:42:07;3.67;;;2.53;;
47882;SDS011;37739;50.350;7.578;2023-05-29T13:44:33;3.40;;;3.03;;
47882;SDS011;37739;50.350;7.578;2023-05-29T13:47:01;3.37;;;3.07;;
47882;SDS011;37739;50.350;7.578;2023-05-29T13:49:28;5.43;;;2.93;;
47882;SDS011;37739;50.350;7.578;2023-05-29T13:51:54;5.57;;;3.67;;
47882;SDS011;37739;50.350;7.578;2023-05-29T13:54:21;5.17;;;2.93;;
47882;SDS011;37739;50.350;7.578;2023-05-29T13:56:49;4.60;;;2.90;;
47882;SDS011;37739;50.350;7.578;2023-05-29T13:59:17;8.10;;;4.00;;
47882;SDS011;37739;50.350;7.578;2023-05-29T14:01:44;4.40;;;3.00;;
47882;SDS011;37739;50.350;7.578;2023-05-29T14:04:10;6.17;;;3.40;;
47882;SDS011;37739;50.350;7.578;2023-05-29T14:06:35;5.43;;;2.70;;
47882;SDS011;37739;50.350;7.578;2023-05-29T14:09:02;7.53;;;3.67;;
47882;SDS011;37739;50.350;7.578;2023-05-29T14:11:29;5.00;;;3.17;;
47882;SDS011;37739;50.350;7.578;2023-05-29T14:14:02;4.70;;;3.13;;
47882;SDS011;37739;50.350;7.578;2023-05-29T14:16:28;5.37;;;3.50;;
47882;SDS011;37739;50.350;7.578;2023-05-29T14:18:56;3.83;;;2.90;;
47882;SDS011;37739;50.350;7.578;2023-05-29T14:21:21;4.97;;;3.07;;
47882;SDS011;37739;50.350;7.578;2023-05-29T14:23:47;4.17;;;2.70;;
47882;SDS011;37739;50.350;7.578;2023-05-29T14:26:12;3.67;;;3.03;;
47882;SDS011;37739;50.350;7.578;2023-05-29T14:28:38;4.50;;;2.77;;
47882;SDS011;37739;50.350;7.578;2023-05-29T14:31:08;4.37;;;3.07;;
47882;SDS011;37739;50.350;7.578;2023-05-29T14:33:33;3.47;;;2.80;;
47882;SDS011;37739;50.350;7.578;2023-05-29T14:35:59;4.33;;;3.00;;
47882;SDS011;37739;50.350;7.578;2023-05-29T14:38:26;4.73;;;3.03;;
47882;SDS011;37739;50.350;7.578;2023-05-29T14:40:52;3.97;;;2.70;;
47882;SDS011;37739;50.350;7.578;2023-05-29T14:43:19;7.33;;;3.30;;
47882;SDS011;37739;50.350;7.578;2023-05-29T14:45:48;3.03;;;2.40;;
47882;SDS011;37739;50.350;7.578;2023-05-29T14:48:13;3.17;;;2.53;;
47882;SDS011;37739;50.350;7.578;2023-05-29T14:50:41;3.30;;;2.60;;
47882;SDS011;37739;50.350;7.578;2023-05-29T14:53:06;5.20;;;2.67;;
47882;SDS011;37739;50.350;7.578;2023-05-29T14:55:32;3.03;;;2.57;;
47882;SDS011;37739;50.350;7.578;2023-05-29T14:58:02;3.93;;;2.70;;
47882;SDS011;37739;50.350;7.578;2023-05-29T15:00:28;3.83;;;2.67;;
47882;SDS011;37739;50.350;7.578;2023-05-29T15:02:53;4.23;;;2.73;;
47882;SDS011;37739;50.350;7.578;2023-05-29T15:05:21;5.53;;;2.40;;
47882;SDS011;37739;50.350;7.578;2023-05-29T15:07:49;3.43;;;2.90;;
47882;SDS011;37739;50.350;7.578;2023-05-29T15:10:14;2.60;;;2.40;;
47882;SDS011;37739;50.350;7.578;2023-05-29T15:12:42;2.80;;;2.50;;
47882;SDS011;37739;50.350;7.578;2023-05-29T15:15:10;4.60;;;2.80;;
47882;SDS011;37739;50.350;7.578;2023-05-29T15:17:35;3.53;;;2.70;;